createdAt,value
2023-04-23T00:02:08.129Z,12.20
2023-04-23T00:04:38.258Z,12.20
2023-04-23T00:07:06.788Z,12.20
2023-04-23T00:09:34.528Z,12.20
2023-04-23T00:12:02.415Z,12.20
2023-04-23T00:14:29.682Z,12.20
2023-04-23T00:16:57.256Z,12.20
2023-04-23T00:19:24.304Z,12.20
2023-04-23T00:21:51.465Z,12.20
2023-04-23T00:24:18.438Z,12.20
2023-04-23T00:26:45.357Z,12.10
2023-04-23T00:29:12.777Z,12.10
2023-04-23T00:31:39.696Z,12.10
2023-04-23T00:34:06.663Z,12.10
2023-04-23T00:36:33.705Z,12.10
2023-04-23T00:39:00.715Z,12.10
2023-04-23T00:41:28.507Z,12.10
2023-04-23T00:43:57.928Z,12.10
2023-04-23T00:46:26.872Z,12.00
2023-04-23T00:48:55.331Z,12.00
2023-04-23T00:51:25.673Z,12.00
2023-04-23T00:53:52.563Z,12.00
2023-04-23T00:56:19.939Z,11.90
2023-04-23T00:58:47.436Z,11.90
2023-04-23T01:01:14.499Z,11.90
2023-04-23T01:03:43.378Z,11.90
2023-04-23T01:06:10.584Z,11.90
2023-04-23T01:08:38.953Z,11.90
2023-04-23T01:11:06.169Z,11.90
2023-04-23T01:13:34.363Z,11.80
2023-04-23T01:16:02.350Z,11.80
2023-04-23T01:18:30.073Z,11.80
2023-04-23T01:20:57.011Z,11.70
2023-04-23T01:23:24.187Z,11.70
2023-04-23T01:25:51.162Z,11.70
2023-04-23T01:28:18.590Z,11.70
2023-04-23T01:30:49.443Z,11.70
2023-04-23T01:33:17.396Z,11.70
2023-04-23T01:35:45.337Z,11.70
2023-04-23T01:38:14.596Z,11.70
2023-04-23T01:40:42.078Z,11.70
2023-04-23T01:43:09.758Z,11.70
2023-04-23T01:45:36.833Z,11.60
2023-04-23T01:48:04.317Z,11.60
2023-04-23T01:50:31.319Z,11.60
2023-04-23T01:52:58.248Z,11.60
2023-04-23T01:55:25.245Z,11.60
2023-04-23T01:57:52.229Z,11.50
2023-04-23T02:00:19.384Z,11.50
2023-04-23T02:02:46.606Z,11.50
2023-04-23T02:05:18.680Z,11.50
2023-04-23T02:07:48.583Z,11.50
2023-04-23T02:10:16.542Z,11.40
2023-04-23T02:12:44.702Z,11.40
2023-04-23T02:15:13.691Z,11.30
2023-04-23T02:17:40.657Z,11.30
2023-04-23T02:20:11.880Z,11.30
2023-04-23T02:22:41.531Z,11.30
2023-04-23T02:25:09.825Z,11.20
2023-04-23T02:27:36.968Z,11.20
2023-04-23T02:30:04.928Z,11.20
2023-04-23T02:32:31.831Z,11.20
2023-04-23T02:34:59.670Z,11.10
2023-04-23T02:37:26.950Z,11.10
2023-04-23T02:39:54.268Z,11.10
2023-04-23T02:42:21.139Z,11.10
2023-04-23T02:44:48.037Z,11.10
2023-04-23T02:47:14.956Z,11.10
2023-04-23T02:49:41.902Z,11.10
2023-04-23T02:52:09.092Z,11.10
2023-04-23T02:54:37.130Z,11.00
2023-04-23T02:57:06.283Z,11.00
2023-04-23T02:59:33.383Z,11.00
2023-04-23T03:02:00.414Z,10.90
2023-04-23T03:04:27.776Z,10.90
2023-04-23T03:06:54.624Z,10.90
2023-04-23T03:09:21.492Z,10.80
2023-04-23T03:11:48.504Z,10.80
2023-04-23T03:14:15.452Z,10.70
2023-04-23T03:16:42.421Z,10.70
2023-04-23T03:19:09.395Z,10.80
2023-04-23T03:21:36.283Z,10.70
2023-04-23T03:24:03.268Z,10.70
2023-04-23T03:26:30.124Z,10.70
2023-04-23T03:28:56.999Z,10.70
2023-04-23T03:31:23.986Z,10.60
2023-04-23T03:33:50.911Z,10.60
2023-04-23T03:36:18.130Z,10.60
2023-04-23T03:38:44.989Z,10.60
2023-04-23T03:41:11.932Z,10.60
2023-04-23T03:43:38.797Z,10.50
2023-04-23T03:46:06.459Z,10.60
2023-04-23T03:48:33.390Z,10.60
2023-04-23T03:51:00.382Z,10.60
2023-04-23T03:53:27.226Z,10.50
2023-04-23T03:55:54.162Z,10.50
2023-04-23T03:58:21.337Z,10.50
2023-04-23T04:00:48.232Z,10.50
2023-04-23T04:03:15.276Z,10.50
2023-04-23T04:05:42.346Z,10.60
2023-04-23T04:08:09.217Z,10.50
2023-04-23T04:10:36.063Z,10.60
2023-04-23T04:13:02.911Z,10.60
2023-04-23T04:15:29.765Z,10.60
2023-04-23T04:17:56.733Z,10.60
2023-04-23T04:20:23.681Z,10.70
2023-04-23T04:22:50.547Z,10.70
2023-04-23T04:25:17.474Z,10.70
2023-04-23T04:27:44.346Z,10.70
2023-04-23T04:30:11.808Z,10.80
2023-04-23T04:32:40.333Z,10.90
2023-04-23T04:35:12.811Z,10.90
2023-04-23T04:37:39.952Z,11.00
2023-04-23T04:40:08.161Z,11.10
2023-04-23T04:42:35.091Z,11.10
2023-04-23T04:45:01.938Z,11.20
2023-04-23T04:47:29.146Z,11.30
2023-04-23T04:49:57.875Z,11.40
2023-04-23T04:52:24.902Z,11.40
2023-04-23T04:54:51.863Z,11.50
2023-04-23T04:57:20.238Z,11.60
2023-04-23T04:59:47.128Z,11.70
2023-04-23T05:02:14.309Z,11.80
2023-04-23T05:04:41.487Z,11.90
2023-04-23T05:07:08.627Z,12.00
2023-04-23T05:09:35.577Z,12.10
2023-04-23T05:12:02.487Z,12.30
2023-04-23T05:14:29.896Z,12.40
2023-04-23T05:16:56.984Z,12.50
2023-04-23T05:19:23.959Z,12.70
2023-04-23T05:21:50.893Z,12.80
2023-04-23T05:24:17.795Z,13.00
2023-04-23T05:26:44.684Z,13.10
2023-04-23T05:29:14.197Z,13.40
2023-04-23T05:31:41.200Z,13.50
2023-04-23T05:34:08.074Z,13.60
2023-04-23T05:36:34.960Z,13.80
2023-04-23T05:39:01.837Z,13.90
2023-04-23T05:41:28.808Z,14.00
2023-04-23T05:43:55.704Z,14.20
2023-04-23T05:46:22.690Z,14.30
2023-04-23T05:48:49.683Z,14.40
2023-04-23T05:51:17.163Z,14.50
2023-04-23T05:53:44.124Z,14.60
2023-04-23T05:56:11.000Z,14.80
2023-04-23T05:58:38.980Z,14.90
2023-04-23T06:01:06.066Z,15.10
2023-04-23T06:03:33.204Z,15.20
2023-04-23T06:06:01.667Z,15.40
2023-04-23T06:08:29.360Z,15.60
2023-04-23T06:10:56.416Z,15.80
2023-04-23T06:13:23.400Z,16.00
2023-04-23T06:15:50.309Z,16.10
2023-04-23T06:18:17.251Z,16.20
2023-04-23T06:20:45.177Z,16.40
2023-04-23T06:23:13.355Z,16.50
2023-04-23T06:25:40.622Z,16.70
2023-04-23T06:28:07.544Z,16.80
2023-04-23T06:30:34.713Z,17.00
2023-04-23T06:33:02.381Z,17.20
2023-04-23T06:35:31.146Z,17.30
2023-04-23T06:37:58.060Z,17.50
2023-04-23T06:40:24.999Z,17.60
2023-04-23T06:42:52.031Z,17.80
2023-04-23T06:45:19.509Z,17.90
2023-04-23T06:47:47.153Z,18.10
2023-04-23T06:50:14.256Z,18.30
2023-04-23T06:52:41.430Z,18.50
2023-04-23T06:55:09.490Z,18.60
2023-04-23T06:57:37.625Z,18.70
2023-04-23T07:00:09.103Z,18.90
2023-04-23T07:02:36.339Z,19.20
2023-04-23T07:05:04.057Z,19.40
2023-04-23T07:07:31.136Z,19.50
2023-04-23T07:09:58.010Z,19.60
2023-04-23T07:12:25.289Z,19.80
2023-04-23T07:14:54.300Z,19.90
2023-04-23T07:17:21.743Z,20.00
2023-04-23T07:19:48.802Z,20.00
2023-04-23T07:22:15.783Z,20.10
2023-04-23T07:24:43.059Z,20.20
2023-04-23T07:27:10.446Z,20.30
2023-04-23T07:29:37.808Z,20.30
2023-04-23T07:32:04.867Z,20.50
2023-04-23T07:34:31.957Z,20.70
2023-04-23T07:36:59.048Z,20.70
2023-04-23T07:39:25.976Z,20.90
2023-04-23T07:41:52.919Z,21.10
2023-04-23T07:44:19.954Z,21.20
2023-04-23T07:46:47.052Z,21.50
2023-04-23T07:49:14.234Z,21.80
2023-04-23T07:51:41.919Z,21.80
2023-04-23T07:54:09.738Z,21.90
2023-04-23T07:56:37.042Z,22.00
2023-04-23T07:59:06.016Z,22.20
2023-04-23T08:01:34.526Z,22.30
2023-04-23T08:04:03.134Z,22.50
2023-04-23T08:06:31.419Z,22.60
2023-04-23T08:08:58.377Z,22.80
2023-04-23T08:11:29.467Z,23.00
2023-04-23T08:13:56.398Z,23.10
2023-04-23T08:16:23.368Z,23.20
2023-04-23T08:19:04.177Z,23.20
2023-04-23T08:21:33.666Z,23.20
2023-04-23T08:24:02.832Z,23.20
2023-04-23T08:26:31.315Z,23.20
2023-04-23T08:29:00.731Z,23.30
2023-04-23T08:31:27.986Z,23.40
2023-04-23T08:33:56.508Z,23.50
2023-04-23T08:36:23.691Z,23.60
2023-04-23T08:38:51.837Z,23.80
2023-04-23T08:41:23.632Z,23.80
2023-04-23T08:44:02.637Z,23.80
2023-04-23T08:46:35.037Z,23.80
2023-04-23T08:49:03.818Z,23.90
2023-04-23T08:51:36.188Z,23.80
2023-04-23T08:54:08.407Z,23.90
2023-04-23T08:56:37.240Z,24.00
2023-04-23T08:59:04.542Z,24.20
2023-04-23T09:01:31.662Z,24.30
2023-04-23T09:04:00.714Z,24.30
2023-04-23T09:06:27.764Z,24.40
2023-04-23T09:08:56.046Z,24.40
2023-04-23T09:11:27.179Z,24.40
2023-04-23T09:13:56.325Z,24.40
2023-04-23T09:16:24.690Z,24.60
2023-04-23T09:18:52.620Z,24.60
2023-04-23T09:21:20.772Z,24.70
2023-04-23T09:23:53.902Z,24.80
2023-04-23T09:26:22.354Z,24.80
2023-04-23T09:28:53.316Z,24.80
2023-04-23T09:31:23.894Z,24.70
2023-04-23T09:33:53.630Z,24.80
2023-04-23T09:36:23.768Z,24.90
2023-04-23T09:38:55.847Z,24.90
2023-04-23T09:41:27.861Z,24.90
2023-04-23T09:43:56.488Z,25.00
2023-04-23T09:46:39.397Z,25.00
2023-04-23T09:49:10.530Z,25.20
2023-04-23T09:51:41.592Z,25.30
2023-04-23T09:54:30.176Z,25.30
2023-04-23T09:57:01.997Z,25.50
2023-04-23T10:02:07.313Z,25.40
2023-04-23T10:04:35.419Z,25.50
2023-04-23T10:07:18.880Z,25.60
2023-04-23T10:09:47.873Z,25.70
2023-04-23T10:14:49.495Z,25.70
2023-04-23T10:17:17.895Z,25.90
2023-04-23T10:19:45.626Z,25.90
2023-04-23T10:22:20.105Z,25.60
2023-04-23T10:24:56.069Z,25.40
2023-04-23T10:27:36.875Z,25.50
2023-04-23T10:30:14.735Z,25.60
2023-04-23T10:32:42.575Z,25.50
2023-04-23T10:35:10.917Z,25.60
2023-04-23T10:37:39.011Z,25.60
2023-04-23T10:40:14.067Z,25.80
2023-04-23T10:42:45.640Z,25.90
2023-04-23T10:45:25.243Z,26.00
2023-04-23T10:47:57.277Z,26.00
2023-04-23T10:50:30.310Z,26.00
2023-04-23T10:52:58.058Z,26.00
2023-04-23T10:55:29.309Z,26.00
2023-04-23T10:58:05.412Z,26.10
2023-04-23T11:00:46.533Z,26.10
2023-04-23T11:03:43.462Z,26.10
2023-04-23T11:06:48.282Z,26.00
2023-04-23T11:09:46.075Z,25.70
2023-04-23T11:12:29.931Z,25.90
2023-04-23T11:15:01.707Z,26.00
2023-04-23T11:17:32.445Z,26.10
2023-04-23T11:20:11.654Z,26.20
2023-04-23T11:22:44.816Z,26.10
2023-04-23T11:25:20.880Z,26.20
2023-04-23T11:27:51.749Z,26.30
2023-04-23T11:30:22.254Z,26.50
2023-04-23T11:32:53.895Z,26.60
2023-04-23T11:35:23.346Z,26.70
2023-04-23T11:37:50.660Z,26.80
2023-04-23T11:40:21.146Z,26.70
2023-04-23T11:42:49.711Z,26.70
2023-04-23T11:45:22.881Z,26.60
2023-04-23T11:47:56.328Z,26.60
2023-04-23T11:50:33.014Z,26.50
2023-04-23T11:53:09.374Z,26.50
2023-04-23T11:55:36.734Z,26.30
2023-04-23T11:58:04.106Z,26.30
2023-04-23T12:00:31.105Z,26.30
2023-04-23T12:03:03.556Z,26.30
2023-04-23T12:05:37.224Z,26.30
2023-04-23T12:08:12.142Z,26.10
2023-04-23T12:11:06.268Z,26.10
2023-04-23T12:13:34.122Z,26.20
2023-04-23T12:16:04.401Z,26.10
2023-04-23T12:18:38.152Z,26.00
2023-04-23T12:21:13.756Z,26.00
2023-04-23T12:23:44.632Z,26.20
2023-04-23T12:26:15.268Z,26.10
2023-04-23T12:28:51.877Z,26.20
2023-04-23T12:31:29.849Z,26.20
2023-04-23T12:34:06.519Z,26.20
2023-04-23T12:36:40.995Z,26.10
2023-04-23T12:39:33.708Z,26.10
2023-04-23T12:42:07.951Z,26.10
2023-04-23T12:44:39.457Z,26.10
2023-04-23T12:47:15.090Z,26.20
2023-04-23T12:49:43.198Z,26.00
2023-04-23T12:52:12.193Z,26.00
2023-04-23T12:54:41.329Z,26.00
2023-04-23T12:57:12.752Z,26.00
2023-04-23T12:59:40.081Z,26.00
2023-04-23T13:02:07.585Z,26.00
2023-04-23T13:04:36.701Z,26.00
2023-04-23T13:07:04.440Z,26.00
2023-04-23T13:09:31.410Z,25.90
2023-04-23T13:12:00.136Z,25.90
2023-04-23T13:14:28.058Z,25.90
2023-04-23T13:16:55.054Z,25.80
2023-04-23T13:19:21.965Z,25.80
2023-04-23T13:21:48.880Z,25.80
2023-04-23T13:24:16.122Z,25.80
2023-04-23T13:26:44.851Z,25.90
2023-04-23T13:29:12.361Z,25.90
2023-04-23T13:31:39.276Z,25.90
2023-04-23T13:34:06.225Z,25.80
2023-04-23T13:36:33.159Z,25.80
2023-04-23T13:39:00.071Z,25.70
2023-04-23T13:41:27.092Z,25.70
2023-04-23T13:43:53.979Z,25.70
2023-04-23T13:46:21.244Z,25.70
2023-04-23T13:48:48.239Z,25.70
2023-04-23T13:51:33.238Z,25.70
2023-04-23T13:54:02.095Z,25.70
2023-04-23T13:56:31.114Z,25.70
2023-04-23T13:59:18.967Z,25.70
2023-04-23T14:01:50.848Z,25.70
2023-04-23T14:04:24.493Z,25.60
2023-04-23T14:06:51.564Z,25.60
2023-04-23T14:09:19.149Z,25.60
2023-04-23T14:11:46.155Z,25.50
2023-04-23T14:14:13.135Z,25.60
2023-04-23T14:16:40.130Z,25.50
2023-04-23T14:19:07.133Z,25.60
2023-04-23T14:21:36.170Z,25.50
2023-04-23T14:24:16.733Z,25.60
2023-04-23T14:26:49.188Z,25.50
2023-04-23T14:29:22.475Z,25.50
2023-04-23T14:31:49.539Z,25.50
2023-04-23T14:34:16.435Z,25.50
2023-04-23T14:36:43.449Z,25.50
2023-04-23T14:39:11.911Z,25.50
2023-04-23T14:41:41.018Z,25.40
2023-04-23T14:44:08.053Z,25.40
2023-04-23T14:46:35.497Z,25.40
2023-04-23T14:49:02.432Z,25.40
2023-04-23T14:51:29.707Z,25.30
2023-04-23T14:53:57.057Z,25.20
2023-04-23T14:56:24.164Z,25.20
2023-04-23T14:58:51.177Z,25.10
2023-04-23T15:01:18.149Z,25.00
2023-04-23T15:03:46.470Z,24.90
2023-04-23T15:06:13.741Z,24.80
2023-04-23T15:08:40.866Z,24.70
2023-04-23T15:11:13.246Z,24.60
2023-04-23T15:13:50.625Z,24.60
2023-04-23T15:16:46.826Z,24.60
2023-04-23T15:19:15.059Z,24.60
2023-04-23T15:21:43.051Z,24.50
2023-04-23T15:24:10.576Z,24.50
2023-04-23T15:26:38.492Z,24.50
2023-04-23T15:29:08.964Z,24.50
2023-04-23T15:31:37.905Z,24.50
2023-04-23T15:34:07.302Z,24.40
2023-04-23T15:36:35.752Z,24.40
2023-04-23T15:39:03.295Z,24.40
2023-04-23T15:41:30.497Z,24.30
2023-04-23T15:43:57.627Z,24.20
2023-04-23T15:46:24.510Z,24.20
2023-04-23T15:48:51.487Z,24.00
2023-04-23T15:51:18.794Z,24.00
2023-04-23T15:53:45.777Z,23.90
2023-04-23T15:56:12.854Z,23.80
2023-04-23T15:58:40.039Z,23.70
2023-04-23T16:01:09.999Z,23.70
2023-04-23T16:03:37.589Z,23.60
2023-04-23T16:06:06.528Z,23.50
2023-04-23T16:08:33.740Z,23.50
2023-04-23T16:11:01.749Z,23.40
2023-04-23T16:13:29.575Z,23.30
2023-04-23T16:15:57.901Z,23.30
2023-04-23T16:18:25.073Z,22.90
2023-04-23T16:20:52.091Z,22.70
2023-04-23T16:23:18.988Z,22.70
2023-04-23T16:25:49.419Z,22.50
2023-04-23T16:28:16.757Z,22.30
2023-04-23T16:30:43.806Z,22.00
2023-04-23T16:33:11.664Z,21.80
2023-04-23T16:35:38.827Z,21.60
2023-04-23T16:38:06.806Z,21.50
2023-04-23T16:40:34.515Z,21.40
2023-04-23T16:43:01.679Z,20.80
2023-04-23T16:45:28.824Z,20.60
2023-04-23T16:47:55.907Z,20.50
2023-04-23T16:50:23.303Z,20.30
2023-04-23T16:52:51.510Z,20.20
2023-04-23T16:55:21.294Z,20.10
2023-04-23T16:57:49.737Z,20.00
2023-04-23T17:00:17.931Z,19.90
2023-04-23T17:02:45.081Z,19.70
2023-04-23T17:05:12.498Z,19.50
2023-04-23T17:07:44.051Z,19.50
2023-04-23T17:10:17.202Z,19.40
2023-04-23T17:12:45.020Z,19.40
2023-04-23T17:15:12.252Z,19.30
2023-04-23T17:17:39.279Z,19.20
2023-04-23T17:20:08.342Z,19.30
2023-04-23T17:22:35.718Z,19.30
2023-04-23T17:25:02.953Z,19.20
2023-04-23T17:27:30.170Z,19.30
2023-04-23T17:29:57.349Z,19.30
2023-04-23T17:32:25.072Z,19.20
2023-04-23T17:35:06.326Z,19.20
2023-04-23T17:37:36.930Z,19.20
2023-04-23T17:40:06.055Z,19.00
2023-04-23T17:42:34.853Z,18.70
2023-04-23T17:45:03.488Z,18.70
2023-04-23T17:47:31.615Z,18.70
2023-04-23T17:49:58.799Z,18.60
2023-04-23T17:52:27.118Z,18.70
2023-04-23T17:54:54.873Z,18.70
2023-04-23T17:57:22.536Z,18.60
2023-04-23T17:59:49.734Z,18.60
2023-04-23T18:02:18.771Z,18.50
2023-04-23T18:04:48.826Z,18.50
2023-04-23T18:07:17.550Z,18.50
2023-04-23T18:09:45.008Z,18.40
2023-04-23T18:12:12.596Z,18.40
2023-04-23T18:14:41.977Z,18.40
2023-04-23T18:17:09.253Z,18.40
2023-04-23T18:19:37.327Z,18.50
2023-04-23T18:22:05.426Z,18.60
2023-04-23T18:24:34.872Z,18.50
2023-04-23T18:27:03.117Z,18.50
2023-04-23T18:29:30.558Z,18.40
2023-04-23T18:31:57.963Z,18.40
2023-04-23T18:34:30.235Z,18.40
2023-04-23T18:37:03.233Z,18.30
2023-04-23T18:41:42.731Z,18.30
2023-04-23T18:42:21.406Z,18.40
2023-04-23T18:44:50.070Z,18.40
2023-04-23T18:47:19.730Z,18.40
2023-04-23T18:49:57.302Z,18.40
2023-04-23T18:52:24.979Z,18.40
2023-04-23T18:54:52.935Z,18.40
2023-04-23T18:57:22.747Z,18.40
2023-04-23T18:59:53.238Z,18.20
2023-04-23T19:02:35.368Z,18.10
2023-04-23T19:05:05.688Z,18.10
2023-04-23T19:07:34.371Z,18.00
2023-04-23T19:10:11.256Z,18.10
2023-04-23T19:12:38.537Z,18.10
2023-04-23T19:15:06.851Z,18.20
2023-04-23T19:20:22.061Z,18.20
2023-04-23T19:22:57.101Z,18.20
2023-04-23T19:25:25.102Z,18.20
2023-04-23T19:27:53.974Z,18.20
2023-04-23T19:30:26.673Z,18.10
2023-04-23T19:32:54.453Z,18.00
2023-04-23T19:35:22.925Z,18.00
2023-04-23T19:37:52.351Z,18.00
2023-04-23T19:40:21.241Z,17.90
2023-04-23T19:42:49.497Z,17.90
2023-04-23T19:45:19.112Z,18.00
2023-04-23T19:47:47.002Z,18.20
2023-04-23T19:50:15.677Z,18.30
2023-04-23T19:52:43.671Z,18.40
2023-04-23T19:55:13.681Z,18.50
2023-04-23T19:57:44.715Z,18.50
2023-04-23T20:00:16.885Z,18.50
2023-04-23T20:02:46.274Z,18.50
2023-04-23T20:05:13.796Z,18.40
2023-04-23T20:07:41.392Z,18.50
2023-04-23T20:10:09.246Z,18.50
2023-04-23T20:12:36.611Z,18.50
2023-04-23T20:15:04.245Z,18.50
2023-04-23T20:17:31.701Z,18.40
2023-04-23T20:20:02.070Z,18.30
2023-04-23T20:22:30.951Z,18.20
2023-04-23T20:25:03.709Z,18.10
2023-04-23T20:27:31.195Z,18.10
2023-04-23T20:29:58.480Z,18.10
2023-04-23T20:32:28.266Z,18.10
2023-04-23T20:34:55.559Z,18.10
2023-04-23T20:37:27.194Z,18.10
2023-04-23T20:40:01.891Z,18.10
2023-04-23T20:42:29.270Z,18.10
2023-04-23T20:44:56.484Z,18.10
2023-04-23T20:47:23.958Z,18.10
2023-04-23T20:49:51.469Z,18.10
2023-04-23T20:52:19.824Z,18.10
2023-04-23T20:54:47.045Z,18.20
2023-04-23T20:57:14.088Z,18.10
2023-04-23T20:59:43.671Z,18.10
2023-04-23T21:02:13.592Z,18.10
2023-04-23T21:04:41.276Z,18.00
2023-04-23T21:07:08.623Z,18.00
2023-04-23T21:09:35.857Z,17.90
2023-04-23T21:12:03.374Z,17.90
2023-04-23T21:14:30.623Z,17.90
2023-04-23T21:16:57.829Z,17.90
2023-04-23T21:19:24.888Z,17.90
2023-04-23T21:21:51.850Z,18.00
2023-04-23T21:24:19.083Z,18.00
2023-04-23T21:26:46.716Z,18.00
2023-04-23T21:29:13.764Z,18.00
2023-04-23T21:31:48.215Z,18.00
2023-04-23T21:34:15.953Z,18.00
2023-04-23T21:36:44.883Z,17.90
2023-04-23T21:39:13.349Z,17.90
2023-04-23T21:41:41.915Z,17.80
2023-04-23T21:44:09.244Z,17.80
2023-04-23T21:46:36.339Z,17.70
2023-04-23T21:49:03.470Z,17.60
2023-04-23T21:51:30.524Z,17.60
2023-04-23T21:53:57.375Z,17.60
2023-04-23T21:56:24.348Z,17.60
2023-04-23T21:58:51.212Z,17.50
2023-04-23T22:01:18.228Z,17.40
2023-04-23T22:03:47.143Z,17.40
2023-04-23T22:06:15.889Z,17.30
2023-04-23T22:08:46.160Z,17.10
2023-04-23T22:11:14.703Z,17.00
2023-04-23T22:13:41.622Z,16.90
2023-04-23T22:16:24.294Z,16.90
2023-04-23T22:18:51.688Z,16.80
2023-04-23T22:21:18.590Z,16.80
2023-04-23T22:23:45.532Z,16.70
2023-04-23T22:26:12.894Z,16.80
2023-04-23T22:28:39.745Z,16.80
2023-04-23T22:31:06.625Z,16.80
2023-04-23T22:33:33.511Z,16.80
2023-04-23T22:36:00.411Z,16.90
2023-04-23T22:38:27.311Z,17.00
2023-04-23T22:40:54.223Z,16.90
2023-04-23T22:43:21.057Z,16.90
2023-04-23T22:45:48.074Z,17.00
2023-04-23T22:48:14.966Z,17.00
2023-04-23T22:50:42.697Z,17.00
2023-04-23T22:53:09.656Z,17.00
2023-04-23T22:55:36.715Z,16.90
2023-04-23T22:58:03.583Z,16.90
2023-04-23T23:00:30.801Z,16.90
2023-04-23T23:02:57.769Z,16.90
2023-04-23T23:05:26.632Z,16.90
2023-04-23T23:07:54.282Z,17.00
2023-04-23T23:10:22.884Z,17.00
2023-04-23T23:12:50.358Z,16.90
2023-04-23T23:15:17.249Z,16.90
2023-04-23T23:17:44.167Z,16.80
2023-04-23T23:20:11.970Z,16.80
2023-04-23T23:22:38.896Z,16.80
2023-04-23T23:25:07.572Z,16.80
2023-04-23T23:27:34.645Z,16.80
2023-04-23T23:30:05.644Z,16.80
2023-04-23T23:32:36.404Z,16.80
2023-04-23T23:35:04.350Z,16.90
2023-04-23T23:37:31.298Z,16.90
2023-04-23T23:39:58.210Z,16.90
2023-04-23T23:42:25.285Z,16.90
2023-04-23T23:44:52.156Z,16.80
2023-04-23T23:47:19.339Z,16.80
2023-04-23T23:49:46.222Z,16.80
2023-04-23T23:52:13.291Z,16.80
2023-04-23T23:54:40.219Z,16.70
2023-04-23T23:57:07.599Z,16.60
2023-04-23T23:59:34.829Z,16.60
